createdAt,value
2017-12-15T00:01:49.398Z,9.10
2017-12-15T00:04:16.959Z,8.70
2017-12-15T00:06:44.423Z,8.27
2017-12-15T00:09:11.878Z,8.97
2017-12-15T00:11:40.877Z,9.10
2017-12-15T00:14:08.330Z,9.50
2017-12-15T00:16:35.803Z,8.77
2017-12-15T00:19:04.046Z,9.47
2017-12-15T00:21:31.527Z,10.40
2017-12-15T00:23:59.038Z,9.87
2017-12-15T00:26:26.492Z,9.70
2017-12-15T00:28:54.158Z,11.17
2017-12-15T00:31:21.617Z,10.10
2017-12-15T00:33:49.099Z,11.17
2017-12-15T00:36:16.603Z,10.43
2017-12-15T00:38:44.838Z,10.83
2017-12-15T00:41:12.311Z,11.23
2017-12-15T00:43:40.579Z,11.57
2017-12-15T00:46:08.043Z,10.53
2017-12-15T00:48:35.503Z,12.53
2017-12-15T00:51:03.754Z,12.10
2017-12-15T00:53:31.251Z,10.77
2017-12-15T00:55:59.506Z,12.97
2017-12-15T00:58:27.735Z,11.60
2017-12-15T01:00:55.223Z,13.63
2017-12-15T01:03:22.702Z,13.00
2017-12-15T01:05:50.948Z,13.60
2017-12-15T01:08:18.426Z,14.90
2017-12-15T01:10:45.886Z,13.37
2017-12-15T01:13:14.144Z,14.23
2017-12-15T01:15:41.599Z,14.23
2017-12-15T01:18:09.086Z,13.87
2017-12-15T01:20:37.326Z,14.13
2017-12-15T01:23:04.783Z,14.13
2017-12-15T01:25:32.262Z,14.07
2017-12-15T01:28:00.500Z,13.87
2017-12-15T01:30:27.987Z,12.67
2017-12-15T01:32:56.238Z,13.53
2017-12-15T01:35:23.713Z,13.07
2017-12-15T01:37:51.955Z,14.87
2017-12-15T01:40:19.426Z,13.87
2017-12-15T01:42:46.914Z,13.47
2017-12-15T01:45:15.146Z,13.07
2017-12-15T01:47:42.627Z,14.70
2017-12-15T01:50:10.104Z,13.77
2017-12-15T01:52:38.345Z,15.17
2017-12-15T01:55:05.804Z,14.43
2017-12-15T01:57:33.290Z,15.50
2017-12-15T02:00:01.549Z,14.27
2017-12-15T02:02:29.013Z,14.00
2017-12-15T02:04:56.494Z,13.70
2017-12-15T02:07:23.958Z,14.30
2017-12-15T02:09:51.424Z,12.93
2017-12-15T02:12:18.910Z,12.07
2017-12-15T02:14:46.371Z,11.60
2017-12-15T02:17:13.851Z,12.10
2017-12-15T02:19:41.423Z,12.33
2017-12-15T02:22:09.661Z,11.10
2017-12-15T02:24:37.135Z,11.50
2017-12-15T02:27:04.602Z,11.10
2017-12-15T02:29:32.851Z,12.10
2017-12-15T02:32:00.315Z,9.90
2017-12-15T02:34:27.791Z,10.43
2017-12-15T02:36:56.023Z,11.30
2017-12-15T02:39:23.483Z,10.80
2017-12-15T02:41:50.966Z,11.47
2017-12-15T02:44:18.435Z,10.30
2017-12-15T02:46:45.891Z,11.40
2017-12-15T02:49:14.142Z,10.80
2017-12-15T02:51:41.607Z,11.13
2017-12-15T02:54:09.091Z,11.00
2017-12-15T02:56:37.334Z,10.33
2017-12-15T02:59:04.795Z,10.20
2017-12-15T03:01:32.273Z,12.00
2017-12-15T03:04:00.527Z,10.63
2017-12-15T03:06:28.010Z,12.20
2017-12-15T03:08:56.238Z,11.53
2017-12-15T03:11:23.726Z,11.80
2017-12-15T03:13:51.214Z,11.30
2017-12-15T03:16:18.671Z,12.10
2017-12-15T03:18:46.151Z,13.37
2017-12-15T03:21:13.646Z,13.03
2017-12-15T03:23:41.103Z,14.23
2017-12-15T03:26:08.594Z,13.73
2017-12-15T03:28:36.110Z,13.07
2017-12-15T03:31:03.572Z,13.13
2017-12-15T03:33:31.043Z,15.23
2017-12-15T03:36:02.155Z,14.60
2017-12-15T03:38:29.633Z,13.87
2017-12-15T03:40:57.098Z,13.70
2017-12-15T03:43:25.616Z,14.57
2017-12-15T03:45:53.067Z,12.00
2017-12-15T03:48:20.531Z,13.23
2017-12-15T03:50:48.006Z,13.33
2017-12-15T03:53:15.480Z,12.30
2017-12-15T03:55:42.950Z,13.40
2017-12-15T03:58:10.434Z,13.13
2017-12-15T04:00:37.923Z,12.37
2017-12-15T04:03:05.386Z,13.73
2017-12-15T04:05:32.875Z,12.83
2017-12-15T04:08:00.342Z,12.37
2017-12-15T04:10:28.582Z,10.80
2017-12-15T04:12:56.059Z,10.97
2017-12-15T04:15:23.545Z,11.40
2017-12-15T04:17:51.018Z,12.63
2017-12-15T04:20:18.490Z,12.20
2017-12-15T04:22:45.971Z,11.67
2017-12-15T04:25:13.440Z,11.20
2017-12-15T04:27:40.903Z,12.43
2017-12-15T04:30:08.386Z,11.80
2017-12-15T04:32:36.616Z,11.40
2017-12-15T04:35:04.116Z,12.87
2017-12-15T04:37:31.586Z,11.60
2017-12-15T04:39:59.047Z,12.80
2017-12-15T04:42:26.526Z,13.37
2017-12-15T04:44:53.990Z,13.27
2017-12-15T04:47:21.466Z,12.60
2017-12-15T04:49:48.949Z,11.70
2017-12-15T04:52:17.182Z,11.80
2017-12-15T04:54:44.668Z,10.27
2017-12-15T04:57:17.350Z,11.13
2017-12-15T04:59:45.583Z,11.10
2017-12-15T05:02:13.047Z,10.53
2017-12-15T05:04:40.606Z,10.17
2017-12-15T05:07:08.082Z,11.30
2017-12-15T05:09:35.557Z,10.37
2017-12-15T05:12:03.032Z,9.37
2017-12-15T05:14:30.494Z,9.10
2017-12-15T05:16:57.998Z,9.97
2017-12-15T05:19:25.450Z,9.13
2017-12-15T05:21:52.963Z,9.60
2017-12-15T05:24:20.391Z,9.60
2017-12-15T05:26:48.630Z,9.80
2017-12-15T05:29:16.087Z,10.90
2017-12-15T05:31:43.550Z,10.03
2017-12-15T05:34:11.031Z,10.20
2017-12-15T05:36:38.495Z,10.10
2017-12-15T05:39:06.746Z,10.10
2017-12-15T05:41:34.226Z,10.10
2017-12-15T05:44:02.476Z,9.67
2017-12-15T05:46:29.941Z,9.70
2017-12-15T05:48:57.452Z,10.03
2017-12-15T05:51:24.910Z,9.70
2017-12-15T05:53:52.394Z,9.90
2017-12-15T05:56:19.856Z,10.10
2017-12-15T05:58:47.312Z,10.93
2017-12-15T06:01:14.786Z,10.40
2017-12-15T06:03:42.345Z,11.37
2017-12-15T06:06:10.586Z,11.10
2017-12-15T06:08:38.058Z,10.70
2017-12-15T06:11:05.538Z,10.27
2017-12-15T06:13:33.018Z,10.30
2017-12-15T06:16:01.247Z,10.50
2017-12-15T06:18:29.532Z,10.47
2017-12-15T06:20:57.004Z,10.80
2017-12-15T06:23:24.464Z,11.10
2017-12-15T06:25:52.706Z,10.43
2017-12-15T06:28:20.184Z,10.20
2017-12-15T06:30:47.639Z,9.67
2017-12-15T06:33:15.112Z,10.00
2017-12-15T06:35:43.334Z,9.30
2017-12-15T06:38:10.815Z,9.07
2017-12-15T06:40:38.270Z,8.77
2017-12-15T06:43:05.763Z,12.10
2017-12-15T06:45:33.995Z,12.20
2017-12-15T06:48:01.464Z,11.80
2017-12-15T06:50:28.934Z,7.73
2017-12-15T06:52:57.163Z,6.77
2017-12-15T06:55:25.004Z,6.63
2017-12-15T06:57:52.519Z,5.83
2017-12-15T07:00:19.994Z,6.73
2017-12-15T07:02:48.238Z,6.40
2017-12-15T07:05:15.710Z,8.87
2017-12-15T07:07:43.190Z,9.80
2017-12-15T07:10:10.668Z,7.00
2017-12-15T07:12:38.131Z,7.00
2017-12-15T07:15:05.605Z,6.43
2017-12-15T07:17:33.087Z,7.27
2017-12-15T07:20:00.545Z,7.87
2017-12-15T07:22:28.017Z,7.87
2017-12-15T07:24:56.253Z,8.30
2017-12-15T07:27:23.739Z,9.63
2017-12-15T07:29:51.208Z,9.73
2017-12-15T07:32:19.452Z,9.73
2017-12-15T07:34:46.914Z,9.17
2017-12-15T07:37:14.375Z,8.77
2017-12-15T07:39:41.850Z,8.07
2017-12-15T07:42:10.090Z,9.40
2017-12-15T07:44:37.554Z,7.83
2017-12-15T07:47:05.014Z,7.10
2017-12-15T07:49:34.108Z,7.60
2017-12-15T07:52:01.582Z,7.03
2017-12-15T07:54:29.058Z,17.83
2017-12-15T07:56:56.522Z,22.13
2017-12-15T07:59:24.006Z,9.47
2017-12-15T08:01:51.472Z,7.63
2017-12-15T08:04:18.939Z,7.27
2017-12-15T08:06:46.427Z,8.07
2017-12-15T08:09:13.870Z,7.20
2017-12-15T08:11:41.347Z,7.70
2017-12-15T08:14:09.660Z,7.50
2017-12-15T08:16:37.141Z,7.73
2017-12-15T08:19:04.606Z,8.40
2017-12-15T08:21:32.074Z,7.50
2017-12-15T08:23:59.687Z,7.37
2017-12-15T08:26:27.167Z,7.53
2017-12-15T08:28:54.626Z,7.07
2017-12-15T08:31:22.120Z,8.50
2017-12-15T08:33:50.347Z,7.90
2017-12-15T08:36:17.832Z,6.80
2017-12-15T08:38:45.282Z,6.47
2017-12-15T08:41:12.762Z,6.33
2017-12-15T08:43:40.998Z,6.43
2017-12-15T08:46:08.477Z,6.30
2017-12-15T08:48:35.939Z,5.60
2017-12-15T08:51:03.428Z,6.50
2017-12-15T08:53:30.898Z,6.40
2017-12-15T08:55:58.398Z,5.30
2017-12-15T08:58:25.858Z,5.60
2017-12-15T09:00:53.324Z,6.07
2017-12-15T09:03:20.797Z,5.93
2017-12-15T09:05:49.031Z,4.97
2017-12-15T09:08:16.530Z,5.97
2017-12-15T09:10:44.758Z,5.97
2017-12-15T09:13:12.231Z,4.77
2017-12-15T09:15:39.694Z,4.63
2017-12-15T09:18:07.163Z,5.20
2017-12-15T09:20:35.397Z,5.00
2017-12-15T09:23:02.879Z,4.77
2017-12-15T09:25:30.350Z,4.60
2017-12-15T09:27:58.588Z,4.70
2017-12-15T09:30:26.054Z,4.83
2017-12-15T09:32:53.506Z,4.17
2017-12-15T09:35:20.978Z,4.87
2017-12-15T09:37:48.446Z,4.37
2017-12-15T09:40:16.676Z,4.33
2017-12-15T09:42:44.127Z,3.70
2017-12-15T09:45:11.603Z,3.93
2017-12-15T09:47:39.077Z,4.40
2017-12-15T09:50:07.319Z,4.00
2017-12-15T09:52:34.779Z,3.77
2017-12-15T09:55:02.259Z,4.23
2017-12-15T09:57:29.720Z,3.90
2017-12-15T09:59:57.183Z,4.67
2017-12-15T10:02:25.426Z,4.10
2017-12-15T10:04:52.903Z,4.00
2017-12-15T10:07:20.375Z,3.70
2017-12-15T10:09:47.871Z,3.70
2017-12-15T10:12:15.357Z,5.20
2017-12-15T10:14:42.814Z,3.80
2017-12-15T10:17:10.296Z,3.37
2017-12-15T10:19:37.763Z,3.37
2017-12-15T10:22:06.022Z,3.63
2017-12-15T10:24:33.523Z,3.70
2017-12-15T10:27:01.760Z,3.30
2017-12-15T10:29:29.211Z,3.90
2017-12-15T10:31:56.787Z,3.70
2017-12-15T10:34:24.266Z,3.50
2017-12-15T10:36:51.722Z,3.17
2017-12-15T10:39:19.205Z,3.43
2017-12-15T10:41:46.655Z,3.70
2017-12-15T10:44:14.139Z,2.73
2017-12-15T10:46:41.598Z,2.87
2017-12-15T10:49:09.058Z,2.90
2017-12-15T10:51:36.550Z,3.90
2017-12-15T10:54:04.780Z,4.60
2017-12-15T10:56:32.267Z,3.93
2017-12-15T10:59:00.496Z,3.40
2017-12-15T11:01:27.966Z,3.47
2017-12-15T11:03:55.424Z,3.60
2017-12-15T11:06:22.931Z,3.70
2017-12-15T11:08:51.172Z,3.63
2017-12-15T11:11:18.661Z,4.00
2017-12-15T11:13:46.907Z,4.10
2017-12-15T11:16:15.126Z,4.70
2017-12-15T11:18:42.605Z,4.53
2017-12-15T11:21:10.067Z,3.93
2017-12-15T11:23:37.563Z,5.10
2017-12-15T11:26:05.803Z,5.00
2017-12-15T11:28:33.336Z,3.90
2017-12-15T11:31:00.838Z,4.27
2017-12-15T11:33:28.322Z,4.37
2017-12-15T11:35:56.579Z,5.10
2017-12-15T11:38:24.057Z,4.77
2017-12-15T11:40:52.471Z,4.50
2017-12-15T11:43:19.981Z,4.57
2017-12-15T11:45:47.454Z,4.20
2017-12-15T11:48:14.919Z,4.07
2017-12-15T11:50:42.407Z,4.43
2017-12-15T11:53:09.859Z,4.20
2017-12-15T11:55:37.322Z,5.10
2017-12-15T11:58:04.800Z,3.73
2017-12-15T12:00:32.271Z,4.40
2017-12-15T12:02:59.749Z,4.60
2017-12-15T12:05:27.211Z,4.57
2017-12-15T12:07:54.683Z,4.63
2017-12-15T12:10:22.134Z,4.17
2017-12-15T12:12:49.645Z,4.40
2017-12-15T12:15:17.080Z,3.87
2017-12-15T12:17:44.550Z,4.10
2017-12-15T12:20:12.051Z,4.23
2017-12-15T12:22:39.515Z,3.27
2017-12-15T12:25:06.982Z,3.23
2017-12-15T12:27:34.459Z,3.50
2017-12-15T12:30:01.931Z,4.00
2017-12-15T12:32:29.382Z,5.00
2017-12-15T12:34:56.850Z,5.57
2017-12-15T12:37:24.322Z,3.80
2017-12-15T12:39:51.778Z,4.00
2017-12-15T12:42:20.030Z,4.23
2017-12-15T12:44:47.526Z,4.20
2017-12-15T12:47:15.019Z,3.80
2017-12-15T12:49:42.483Z,4.10
2017-12-15T12:52:09.964Z,3.90
2017-12-15T12:54:37.430Z,3.70
2017-12-15T12:57:05.695Z,3.90
2017-12-15T12:59:34.679Z,4.20
2017-12-15T13:02:02.138Z,4.00
2017-12-15T13:04:29.611Z,4.40
2017-12-15T13:06:57.075Z,3.97
2017-12-15T13:09:25.294Z,4.67
2017-12-15T13:11:52.779Z,4.50
2017-12-15T13:14:20.233Z,3.83
2017-12-15T13:16:47.702Z,4.07
2017-12-15T13:19:15.164Z,3.87
2017-12-15T13:21:42.707Z,4.27
2017-12-15T13:24:10.180Z,3.70
2017-12-15T13:26:37.639Z,4.80
2017-12-15T13:29:05.106Z,4.63
2017-12-15T13:31:33.333Z,5.07
2017-12-15T13:34:00.807Z,5.20
2017-12-15T13:36:28.266Z,5.83
2017-12-15T13:38:55.733Z,6.20
2017-12-15T13:41:23.215Z,5.03
2017-12-15T13:43:51.440Z,5.90
2017-12-15T13:46:18.917Z,5.87
2017-12-15T13:48:46.374Z,5.60
2017-12-15T13:51:13.849Z,5.13
2017-12-15T13:53:42.074Z,5.03
2017-12-15T13:56:09.551Z,5.17
2017-12-15T13:58:37.013Z,6.40
2017-12-15T14:01:04.466Z,6.70
2017-12-15T14:03:31.936Z,6.13
2017-12-15T14:05:59.412Z,6.47
2017-12-15T14:08:27.651Z,6.00
2017-12-15T14:10:55.105Z,6.13
2017-12-15T14:13:22.571Z,7.10
2017-12-15T14:15:50.049Z,6.43
2017-12-15T14:18:18.282Z,6.13
2017-12-15T14:20:45.778Z,7.50
2017-12-15T14:23:14.008Z,6.70
2017-12-15T14:25:41.489Z,6.37
2017-12-15T14:28:08.964Z,5.63
2017-12-15T14:30:37.214Z,4.73
2017-12-15T14:33:04.690Z,4.90
2017-12-15T14:35:32.135Z,5.00
2017-12-15T14:37:59.623Z,4.03
2017-12-15T14:40:27.846Z,4.00
2017-12-15T14:42:55.338Z,4.50
2017-12-15T14:45:22.801Z,5.07
2017-12-15T14:47:51.042Z,5.17
2017-12-15T14:50:18.519Z,5.80
2017-12-15T14:52:45.987Z,5.40
2017-12-15T14:55:14.248Z,5.40
2017-12-15T14:57:41.712Z,5.00
2017-12-15T15:00:09.195Z,4.73
2017-12-15T15:02:36.654Z,4.63
2017-12-15T15:05:04.131Z,5.37
2017-12-15T15:07:31.603Z,18.40
2017-12-15T15:09:59.075Z,12.67
2017-12-15T15:12:28.067Z,8.80
2017-12-15T15:14:55.526Z,7.87
2017-12-15T15:17:23.009Z,6.73
2017-12-15T15:19:51.230Z,7.30
2017-12-15T15:22:18.707Z,6.53
2017-12-15T15:24:48.367Z,6.40
2017-12-15T15:27:16.606Z,6.67
2017-12-15T15:29:44.089Z,8.10
2017-12-15T15:32:12.339Z,8.00
2017-12-15T15:34:39.818Z,14.20
2017-12-15T15:37:08.062Z,15.87
2017-12-15T15:39:35.550Z,12.30
2017-12-15T15:42:03.055Z,10.40
2017-12-15T15:44:30.507Z,8.27
2017-12-15T15:46:58.000Z,7.53
2017-12-15T15:49:25.507Z,7.30
2017-12-15T15:51:52.968Z,7.20
2017-12-15T15:54:20.465Z,6.83
2017-12-15T15:56:47.927Z,7.30
2017-12-15T15:59:16.155Z,6.50
2017-12-15T16:01:43.673Z,7.40
2017-12-15T16:04:11.892Z,6.80
2017-12-15T16:06:39.350Z,7.90
2017-12-15T16:09:06.835Z,7.13
2017-12-15T16:11:35.146Z,8.33
2017-12-15T16:14:03.396Z,7.60
2017-12-15T16:16:30.859Z,8.50
2017-12-15T16:18:59.083Z,8.10
2017-12-15T16:21:26.571Z,8.67
2017-12-15T16:23:54.058Z,8.63
2017-12-15T16:26:22.277Z,9.00
2017-12-15T16:28:49.727Z,8.87
2017-12-15T16:31:17.214Z,9.13
2017-12-15T16:33:44.694Z,8.57
2017-12-15T16:36:12.960Z,9.10
2017-12-15T16:38:40.431Z,8.87
2017-12-15T16:41:08.687Z,9.50
2017-12-15T16:43:36.150Z,7.87
2017-12-15T16:46:03.616Z,8.10
2017-12-15T16:48:31.866Z,9.60
2017-12-15T16:50:59.322Z,9.33
2017-12-15T16:53:26.885Z,10.10
2017-12-15T16:55:55.319Z,9.67
2017-12-15T16:58:22.799Z,11.90
2017-12-15T17:00:50.295Z,11.37
2017-12-15T17:03:17.874Z,15.40
2017-12-15T17:05:46.102Z,13.53
2017-12-15T17:08:13.584Z,10.97
2017-12-15T17:10:41.819Z,13.30
2017-12-15T17:13:09.275Z,13.13
2017-12-15T17:15:36.758Z,11.70
2017-12-15T17:18:04.221Z,11.37
2017-12-15T17:20:31.716Z,12.73
2017-12-15T17:22:59.204Z,13.60
2017-12-15T17:25:26.683Z,13.17
2017-12-15T17:27:54.149Z,12.00
2017-12-15T17:30:23.136Z,11.27
2017-12-15T17:32:50.624Z,10.07
2017-12-15T17:35:18.100Z,9.87
2017-12-15T17:37:45.581Z,11.30
2017-12-15T17:40:13.046Z,10.67
2017-12-15T17:42:40.564Z,11.20
2017-12-15T17:45:08.029Z,10.20
2017-12-15T17:47:35.590Z,12.07
2017-12-15T17:50:03.059Z,13.97
2017-12-15T17:52:30.543Z,13.17
2017-12-15T17:54:58.015Z,13.93
2017-12-15T17:57:26.278Z,11.70
2017-12-15T17:59:53.753Z,12.00
2017-12-15T18:02:21.231Z,11.47
2017-12-15T18:04:48.716Z,12.10
2017-12-15T18:07:16.183Z,10.50
2017-12-15T18:09:43.672Z,10.60
2017-12-15T18:12:11.903Z,12.07
2017-12-15T18:14:39.391Z,10.70
2017-12-15T18:17:06.871Z,11.00
2017-12-15T18:19:35.110Z,11.00
2017-12-15T18:22:02.600Z,11.20
2017-12-15T18:24:30.847Z,9.87
2017-12-15T18:26:58.645Z,10.67
2017-12-15T18:29:26.158Z,10.40
2017-12-15T18:31:53.647Z,11.73
2017-12-15T18:34:21.887Z,12.43
2017-12-15T18:36:49.384Z,11.10
2017-12-15T18:39:16.845Z,10.50
2017-12-15T18:41:45.102Z,11.80
2017-12-15T18:44:12.593Z,11.60
2017-12-15T18:46:40.071Z,10.97
2017-12-15T18:49:07.547Z,9.87
2017-12-15T18:51:35.056Z,10.10
2017-12-15T18:54:02.569Z,10.23
2017-12-15T18:56:30.031Z,10.73
2017-12-15T18:58:57.579Z,10.83
2017-12-15T19:01:25.040Z,10.67
2017-12-15T19:03:52.507Z,10.97
2017-12-15T19:06:19.970Z,12.47
2017-12-15T19:08:47.464Z,12.30
2017-12-15T19:11:14.948Z,12.47
2017-12-15T19:13:42.427Z,10.57
2017-12-15T19:16:09.918Z,11.87
2017-12-15T19:18:38.148Z,12.27
2017-12-15T19:21:05.626Z,11.00
2017-12-15T19:23:33.158Z,12.10
2017-12-15T19:26:00.635Z,13.07
2017-12-15T19:28:29.711Z,12.60
2017-12-15T19:30:57.191Z,12.60
2017-12-15T19:33:24.665Z,12.00
2017-12-15T19:35:52.927Z,12.20
2017-12-15T19:38:20.426Z,11.80
2017-12-15T19:40:47.932Z,12.23
2017-12-15T19:43:15.412Z,11.43
2017-12-15T19:45:43.672Z,12.03
2017-12-15T19:48:11.165Z,12.13
2017-12-15T19:50:38.656Z,12.03
2017-12-15T19:53:06.134Z,12.00
2017-12-15T19:55:33.602Z,12.10
2017-12-15T19:58:01.102Z,11.70
2017-12-15T20:00:28.631Z,13.27
2017-12-15T20:02:56.911Z,13.03
2017-12-15T20:05:25.157Z,12.13
2017-12-15T20:07:52.683Z,14.00
2017-12-15T20:10:20.146Z,12.17
2017-12-15T20:12:47.643Z,12.43
2017-12-15T20:15:15.122Z,12.23
2017-12-15T20:17:43.367Z,12.73
2017-12-15T20:20:10.924Z,12.93
2017-12-15T20:22:38.430Z,14.17
2017-12-15T20:25:05.911Z,13.10
2017-12-15T20:27:33.379Z,14.50
2017-12-15T20:30:00.859Z,14.63
2017-12-15T20:32:28.386Z,14.53
2017-12-15T20:34:55.863Z,13.80
2017-12-15T20:37:23.345Z,13.70
2017-12-15T20:39:51.663Z,13.80
2017-12-15T20:42:19.155Z,13.03
2017-12-15T20:44:48.152Z,13.20
2017-12-15T20:47:15.663Z,14.40
2017-12-15T20:49:43.142Z,14.20
2017-12-15T20:52:10.607Z,14.07
2017-12-15T20:54:39.620Z,13.77
2017-12-15T20:57:07.115Z,14.30
2017-12-15T20:59:34.686Z,15.50
2017-12-15T21:02:02.165Z,13.70
2017-12-15T21:04:29.659Z,13.73
2017-12-15T21:06:57.911Z,14.80
2017-12-15T21:09:25.387Z,15.53
2017-12-15T21:11:53.933Z,15.40
2017-12-15T21:14:21.414Z,13.17
2017-12-15T21:16:48.895Z,13.90
2017-12-15T21:19:23.192Z,12.97
2017-12-15T21:21:50.906Z,14.60
2017-12-15T21:24:18.563Z,13.40
2017-12-15T21:26:46.087Z,14.83
2017-12-15T21:29:14.318Z,16.40
2017-12-15T21:31:41.812Z,15.73
2017-12-15T21:34:09.287Z,17.13
2017-12-15T21:36:36.775Z,15.23
2017-12-15T21:39:04.242Z,15.27
2017-12-15T21:41:31.739Z,15.50
2017-12-15T21:43:59.970Z,15.40
2017-12-15T21:46:27.459Z,15.30
2017-12-15T21:48:54.936Z,14.80
2017-12-15T21:51:23.221Z,14.40
2017-12-15T21:53:51.463Z,12.33
2017-12-15T21:56:18.974Z,14.40
2017-12-15T21:58:46.449Z,12.33
2017-12-15T22:01:13.994Z,14.00
2017-12-15T22:03:41.464Z,13.27
2017-12-15T22:06:08.995Z,13.77
2017-12-15T22:08:36.456Z,14.57
2017-12-15T22:11:03.926Z,15.60
2017-12-15T22:13:31.419Z,15.10
2017-12-15T22:15:58.890Z,14.90
2017-12-15T22:18:27.128Z,16.50
2017-12-15T22:20:54.613Z,17.43
2017-12-15T22:23:22.066Z,17.30
2017-12-15T22:25:49.622Z,16.43
2017-12-15T22:28:17.106Z,16.70
2017-12-15T22:30:44.698Z,15.47
2017-12-15T22:33:12.167Z,14.07
2017-12-15T22:35:39.665Z,15.93
2017-12-15T22:38:07.141Z,16.30
2017-12-15T22:40:34.828Z,13.80
2017-12-15T22:43:02.283Z,14.33
2017-12-15T22:45:29.775Z,15.40
2017-12-15T22:47:57.297Z,14.60
2017-12-15T22:50:24.770Z,16.73
2017-12-15T22:52:52.238Z,18.03
2017-12-15T22:55:19.723Z,17.10
2017-12-15T22:57:47.193Z,17.63
2017-12-15T23:00:17.399Z,17.10
2017-12-15T23:02:44.947Z,15.10
2017-12-15T23:05:12.438Z,16.63
2017-12-15T23:07:40.678Z,17.20
2017-12-15T23:10:08.167Z,18.63
2017-12-15T23:12:36.414Z,16.13
2017-12-15T23:15:03.902Z,17.00
2017-12-15T23:17:32.154Z,15.80
2017-12-15T23:19:59.638Z,15.60
2017-12-15T23:22:27.347Z,14.83
2017-12-15T23:24:54.830Z,14.47
2017-12-15T23:27:23.062Z,15.30
2017-12-15T23:29:50.543Z,12.60
2017-12-15T23:32:17.996Z,11.20
2017-12-15T23:34:45.466Z,11.73
2017-12-15T23:37:12.960Z,11.80
2017-12-15T23:39:40.414Z,12.30
2017-12-15T23:42:07.903Z,10.73
2017-12-15T23:44:35.384Z,11.40
2017-12-15T23:47:02.857Z,11.00
2017-12-15T23:49:31.112Z,12.50
2017-12-15T23:51:58.570Z,14.83
2017-12-15T23:54:37.971Z,15.07
2017-12-15T23:57:05.434Z,16.80
2017-12-15T23:59:32.911Z,15.43
